Time;durP1;ratioP1;P1;durP2;ratioP2;P2;SDS_P1;SDS_P2;PMS_P1;PMS_P2;Temp;Humidity;BMP_temperature;BMP_pressure;BME280_temperature;BME280_humidity;BME280_pressure;Samples;Min_cycle;Max_cycle;Signal;HPM_P1;HPM_P2
2022/03/07 00:01:35;;;;;;;4.35;3.95;;;14.50;30.70;;;;;;5149937;27;47061;-14
2022/03/07 00:04:02;;;;;;;4.55;3.80;;;14.60;30.60;;;;;;5149411;27;46746;-14
2022/03/07 00:06:29;;;;;;;4.85;4.00;;;14.70;30.50;;;;;;5149662;27;46938;-15
2022/03/07 00:08:56;;;;;;;5.10;4.18;;;14.70;30.40;;;;;;5149974;27;46843;-14
2022/03/07 00:11:24;;;;;;;3.95;3.65;;;14.70;30.30;;;;;;5149483;27;49018;-14
2022/03/07 00:13:51;;;;;;;5.15;4.00;;;14.80;30.30;;;;;;5149674;27;46940;-14
2022/03/07 00:16:18;;;;;;;4.15;3.72;;;14.80;30.20;;;;;;5149558;27;46803;-15
2022/03/07 00:18:45;;;;;;;4.80;3.80;;;14.80;30.20;;;;;;5149829;27;47145;-14
2022/03/07 00:21:12;;;;;;;4.68;3.30;;;14.70;30.10;;;;;;5149628;27;48230;-15
2022/03/07 00:23:39;;;;;;;4.05;3.35;;;14.70;30.10;;;;;;5149577;27;47463;-15
2022/03/07 00:26:06;;;;;;;4.70;4.07;;;14.80;30.10;;;;;;5149283;27;46818;-15
2022/03/07 00:28:34;;;;;;;5.32;4.07;;;14.70;30.10;;;;;;5149770;27;46833;-15
2022/03/07 00:31:01;;;;;;;4.22;3.63;;;14.70;30.10;;;;;;5149295;27;47825;-15
2022/03/07 00:33:27;;;;;;;5.10;3.90;;;14.70;30.10;;;;;;5149580;27;46928;-19
2022/03/07 00:35:54;;;;;;;4.28;3.63;;;14.70;30.20;;;;;;5149241;27;46852;-20
2022/03/07 00:38:21;;;;;;;4.05;3.50;;;14.70;30.80;;;;;;5149511;27;47260;-14
2022/03/07 00:40:47;;;;;;;4.15;3.70;;;14.70;30.10;;;;;;5148412;27;47989;-20
2022/03/07 00:43:14;;;;;;;5.20;4.03;;;14.60;30.10;;;;;;5149181;27;47579;-20
2022/03/07 00:45:42;;;;;;;4.25;3.70;;;14.60;30.10;;;;;;5148818;27;46813;-20
2022/03/07 00:48:09;;;;;;;5.95;3.83;;;14.60;30.20;;;;;;5149399;27;46928;-20
2022/03/07 00:50:35;;;;;;;3.95;3.55;;;14.60;30.20;;;;;;5148952;27;47978;-20
2022/03/07 00:53:02;;;;;;;3.50;3.20;;;14.60;30.30;;;;;;5149345;27;46826;-20
2022/03/07 00:55:29;;;;;;;4.20;3.58;;;14.60;30.30;;;;;;5148881;27;46929;-19
2022/03/07 00:57:56;;;;;;;5.03;3.80;;;14.50;30.30;;;;;;5149372;27;46983;-14
2022/03/07 01:00:22;;;;;;;4.15;3.75;;;14.50;30.30;;;;;;5148552;27;49060;-14
2022/03/07 01:02:50;;;;;;;5.35;3.97;;;14.50;30.30;;;;;;5148597;27;47002;-14
2022/03/07 01:05:18;;;;;;;4.25;3.70;;;14.50;30.30;;;;;;5148486;27;46988;-14
2022/03/07 01:07:44;;;;;;;3.63;3.20;;;14.50;30.40;;;;;;5148835;27;46908;-14
2022/03/07 01:10:11;;;;;;;4.57;3.80;;;14.40;30.30;;;;;;5148121;27;48154;-14
2022/03/07 01:12:38;;;;;;;4.15;3.70;;;14.40;30.40;;;;;;5148837;27;47602;-13
2022/03/07 01:15:05;;;;;;;4.05;3.65;;;14.40;30.40;;;;;;5148613;27;46850;-14
2022/03/07 01:17:32;;;;;;;4.30;3.47;;;14.40;30.50;;;;;;5148722;27;46877;-14
2022/03/07 01:20:00;;;;;;;4.18;3.60;;;14.40;30.50;;;;;;5148526;27;49127;-14
2022/03/07 01:22:27;;;;;;;3.88;3.47;;;14.30;30.50;;;;;;5148322;27;46952;-14
2022/03/07 01:24:54;;;;;;;4.30;3.38;;;14.30;30.50;;;;;;5148104;27;46937;-14
2022/03/07 01:27:20;;;;;;;4.75;3.58;;;14.30;30.50;;;;;;5148738;27;47236;-14
2022/03/07 01:29:47;;;;;;;4.38;3.65;;;14.30;30.60;;;;;;5148298;27;47048;-14
2022/03/07 01:32:14;;;;;;;4.35;3.85;;;14.20;30.60;;;;;;5148422;27;46791;-14
2022/03/07 01:34:40;;;;;;;3.40;3.05;;;14.20;30.60;;;;;;5148117;27;46887;-14
2022/03/07 01:37:08;;;;;;;3.92;3.28;;;14.20;30.60;;;;;;5148673;27;46917;-14
2022/03/07 01:39:35;;;;;;;3.78;3.47;;;14.20;31.20;;;;;;5148161;27;48077;-14
2022/03/07 01:42:02;;;;;;;4.95;3.47;;;14.20;30.60;;;;;;5148170;27;46887;-20
2022/03/07 01:44:29;;;;;;;4.43;3.78;;;14.10;30.70;;;;;;5148133;27;46848;-20
2022/03/07 01:46:56;;;;;;;4.72;3.35;;;14.10;30.70;;;;;;5148494;27;46952;-20
2022/03/07 01:49:23;;;;;;;4.63;3.83;;;14.10;30.70;;;;;;5147989;27;49083;-20
2022/03/07 01:51:50;;;;;;;3.85;3.40;;;14.10;30.70;;;;;;5147000;27;47213;-20
2022/03/07 01:54:19;;;;;;;4.38;3.45;;;14.00;30.80;;;;;;5148162;27;46852;-20
2022/03/07 01:56:46;;;;;;;3.95;3.55;;;14.00;30.80;;;;;;5148130;27;46848;-20
2022/03/07 01:59:13;;;;;;;4.53;4.00;;;14.00;30.80;;;;;;5147478;27;47065;-20
2022/03/07 02:01:40;;;;;;;4.20;3.80;;;14.00;30.80;;;;;;5147958;27;46913;-20
2022/03/07 02:04:07;;;;;;;4.53;3.80;;;14.00;30.90;;;;;;5147849;27;46792;-20
2022/03/07 02:06:34;;;;;;;3.80;3.50;;;13.90;30.90;;;;;;5148178;27;47148;-19
2022/03/07 02:09:00;;;;;;;3.67;3.05;;;13.90;30.90;;;;;;5147530;27;47913;-19
2022/03/07 02:11:28;;;;;;;3.40;3.10;;;13.90;31.00;;;;;;5147712;27;46922;-20
2022/03/07 02:13:55;;;;;;;4.73;3.70;;;13.90;30.90;;;;;;5147782;27;46884;-14
2022/03/07 02:16:22;;;;;;;4.00;3.60;;;13.80;30.90;;;;;;5147825;27;46993;-14
2022/03/07 02:18:48;;;;;;;4.77;3.40;;;13.80;31.00;;;;;;5147921;27;48866;-20
2022/03/07 02:21:16;;;;;;;4.15;3.35;;;13.80;31.00;;;;;;5147574;27;47064;-19
2022/03/07 02:23:45;;;;;;;3.83;3.30;;;13.80;31.00;;;;;;5147364;27;46917;-19
2022/03/07 02:26:12;;;;;;;5.32;4.10;;;13.80;31.10;;;;;;5147657;27;47089;-20
2022/03/07 02:28:39;;;;;;;4.20;3.80;;;13.70;31.00;;;;;;5147701;27;48928;-20
2022/03/07 02:31:06;;;;;;;3.95;3.58;;;13.70;31.10;;;;;;5147297;27;46906;-14
2022/03/07 02:33:33;;;;;;;4.07;3.50;;;13.70;31.10;;;;;;5147442;27;46838;-14
2022/03/07 02:36:00;;;;;;;3.38;3.08;;;13.70;31.10;;;;;;5147531;27;46829;-14
2022/03/07 02:38:27;;;;;;;4.18;3.60;;;13.70;31.10;;;;;;5147181;27;47988;-14
2022/03/07 02:40:55;;;;;;;3.88;3.58;;;13.60;31.10;;;;;;5147444;27;47272;-20
2022/03/07 02:43:21;;;;;;;3.85;3.40;;;13.60;31.20;;;;;;5147293;27;46910;-20
2022/03/07 02:45:48;;;;;;;3.78;3.40;;;13.60;31.20;;;;;;5147139;27;46811;-20
2022/03/07 02:48:15;;;;;;;3.70;3.40;;;13.60;31.20;;;;;;5147414;27;46844;-20
2022/03/07 02:50:42;;;;;;;3.60;3.30;;;13.70;31.10;;;;;;5147153;27;47029;-20
2022/03/07 02:53:09;;;;;;;3.40;3.10;;;13.70;31.00;;;;;;5147019;27;46819;-19
2022/03/07 02:55:35;;;;;;;3.78;3.30;;;13.80;30.80;;;;;;5147182;27;46873;-20
2022/03/07 02:58:03;;;;;;;3.60;3.30;;;14.00;30.80;;;;;;5146858;27;47924;-20
2022/03/07 03:00:30;;;;;;;4.27;3.70;;;14.10;30.60;;;;;;5147043;27;46960;-14
2022/03/07 03:02:57;;;;;;;4.10;3.28;;;14.20;30.40;;;;;;5147406;27;46831;-20
2022/03/07 03:05:24;;;;;;;4.22;3.67;;;14.20;30.20;;;;;;5150979;27;46904;-13
2022/03/07 03:07:51;;;;;;;3.83;3.53;;;14.20;30.10;;;;;;5150995;27;47045;-14
2022/03/07 03:10:18;;;;;;;3.57;3.27;;;14.30;30.10;;;;;;5150149;27;47415;-14
2022/03/07 03:12:44;;;;;;;5.05;4.13;;;14.30;30.00;;;;;;5150943;27;46872;-15
2022/03/07 03:15:12;;;;;;;3.47;3.17;;;14.30;30.00;;;;;;5150780;27;46866;-19
2022/03/07 03:17:40;;;;;;;3.83;3.35;;;14.40;30.00;;;;;;5150709;27;46893;-20
2022/03/07 03:20:07;;;;;;;3.50;3.20;;;14.30;30.00;;;;;;5150548;27;47079;-20
2022/03/07 03:22:34;;;;;;;4.10;3.70;;;14.30;30.00;;;;;;5150564;27;46860;-14
2022/03/07 03:25:01;;;;;;;4.78;3.35;;;14.30;30.00;;;;;;5150725;27;46901;-15
2022/03/07 03:27:27;;;;;;;3.72;3.10;;;14.30;30.00;;;;;;5150220;27;49054;-15
2022/03/07 03:29:54;;;;;;;3.40;3.10;;;14.30;30.00;;;;;;5150241;27;47061;-14
2022/03/07 03:32:22;;;;;;;3.80;3.33;;;14.30;30.00;;;;;;5150353;27;46739;-14
2022/03/07 03:34:49;;;;;;;4.65;3.63;;;14.20;30.00;;;;;;5150347;27;47255;-14
2022/03/07 03:37:15;;;;;;;3.75;3.45;;;14.20;30.00;;;;;;5150342;27;48157;-15
2022/03/07 03:39:42;;;;;;;3.87;3.30;;;14.20;30.00;;;;;;5149805;27;46807;-14
2022/03/07 03:42:09;;;;;;;4.82;3.65;;;14.20;30.00;;;;;;5150111;27;46807;-14
2022/03/07 03:44:35;;;;;;;3.50;3.10;;;14.20;30.00;;;;;;5150492;27;47235;-14
2022/03/07 03:47:02;;;;;;;3.58;3.28;;;14.20;30.00;;;;;;5150205;27;48106;-16
2022/03/07 03:49:30;;;;;;;3.83;3.40;;;14.20;30.10;;;;;;5150048;27;46923;-14
2022/03/07 03:51:57;;;;;;;3.72;3.42;;;14.10;30.00;;;;;;5149872;27;46788;-14
2022/03/07 03:54:24;;;;;;;3.40;3.10;;;14.10;30.10;;;;;;5150146;27;47053;-14
2022/03/07 03:56:51;;;;;;;3.97;3.58;;;14.10;30.10;;;;;;5149801;27;48192;-14
2022/03/07 03:59:17;;;;;;;3.42;3.08;;;14.10;30.20;;;;;;5149819;27;46923;-14
2022/03/07 04:01:45;;;;;;;3.88;3.30;;;14.00;30.10;;;;;;5150334;27;47018;-14
2022/03/07 04:04:11;;;;;;;4.27;3.67;;;14.00;30.20;;;;;;5150241;27;47002;-14
2022/03/07 04:06:40;;;;;;;4.53;3.10;;;14.00;30.10;;;;;;5149803;27;49033;-15
2022/03/07 04:09:11;;;;;;;3.27;2.97;;;14.00;30.20;;;;;;5149387;27;47822;-14
2022/03/07 04:11:38;;;;;;;4.00;3.60;;;13.90;30.20;;;;;;5149699;27;46834;-14
2022/03/07 04:14:06;;;;;;;3.20;2.90;;;13.90;30.20;;;;;;5149392;27;47256;-14
2022/03/07 04:16:34;;;;;;;4.07;3.47;;;13.90;30.20;;;;;;5148979;27;49008;-14
2022/03/07 04:19:01;;;;;;;3.40;3.10;;;13.90;30.90;;;;;;5149343;27;46936;-20
2022/03/07 04:21:27;;;;;;;4.47;3.17;;;13.80;30.30;;;;;;5149856;27;46792;-20
2022/03/07 04:23:55;;;;;;;4.27;3.33;;;13.80;30.30;;;;;;5149553;27;47047;-19
2022/03/07 04:26:22;;;;;;;3.57;3.27;;;13.80;30.40;;;;;;5149635;27;48251;-13
2022/03/07 04:28:49;;;;;;;3.83;2.90;;;13.80;30.40;;;;;;5149217;27;46840;-14
2022/03/07 04:31:15;;;;;;;3.30;3.10;;;13.70;30.30;;;;;;5149271;27;46839;-20
2022/03/07 04:33:42;;;;;;;3.60;3.20;;;13.70;30.40;;;;;;5149401;27;46919;-20
2022/03/07 04:36:10;;;;;;;3.43;3.13;;;13.70;30.50;;;;;;5149038;27;46898;-20
2022/03/07 04:38:37;;;;;;;3.80;3.00;;;13.70;30.50;;;;;;5149078;27;47254;-14
2022/03/07 04:41:05;;;;;;;3.57;3.27;;;13.70;30.50;;;;;;5149438;27;46914;-15
2022/03/07 04:43:32;;;;;;;3.20;2.90;;;13.60;30.50;;;;;;5149364;27;47188;-14
2022/03/07 04:45:59;;;;;;;3.13;2.83;;;13.60;30.40;;;;;;5148679;27;48220;-19
2022/03/07 04:48:25;;;;;;;3.27;2.97;;;13.60;30.50;;;;;;5149217;27;46903;-21
2022/03/07 04:50:52;;;;;;;4.43;3.57;;;13.60;30.50;;;;;;5149293;27;46958;-21
2022/03/07 04:53:19;;;;;;;3.40;3.10;;;13.60;30.60;;;;;;5149393;27;46897;-15
2022/03/07 04:55:45;;;;;;;4.00;3.10;;;13.60;30.60;;;;;;5148575;27;47132;-15
2022/03/07 04:58:13;;;;;;;3.47;2.90;;;13.50;30.60;;;;;;5148699;27;47151;-15
2022/03/07 05:00:40;;;;;;;3.40;3.00;;;13.50;30.60;;;;;;5148924;27;46890;-16
2022/03/07 05:03:07;;;;;;;3.30;2.97;;;13.50;30.60;;;;;;5148891;27;47129;-15
2022/03/07 05:05:34;;;;;;;3.67;3.30;;;13.50;31.20;;;;;;5148712;27;47962;-15
2022/03/07 05:08:00;;;;;;;2.77;2.57;;;13.40;30.60;;;;;;5148960;27;47494;-14
2022/03/07 05:10:27;;;;;;;3.90;3.17;;;13.40;30.60;;;;;;5148321;27;46738;-15
2022/03/07 05:12:54;;;;;;;3.30;3.00;;;13.40;30.60;;;;;;5148925;27;46909;-15
2022/03/07 05:15:22;;;;;;;3.30;3.00;;;13.40;30.60;;;;;;5148623;27;49046;-16
2022/03/07 05:17:51;;;;;;;3.27;2.80;;;13.40;30.70;;;;;;5148768;27;46998;-21
2022/03/07 05:20:18;;;;;;;3.50;2.87;;;13.40;30.60;;;;;;5148580;27;46876;-21
2022/03/07 05:22:44;;;;;;;3.38;3.08;;;13.50;30.50;;;;;;5148848;27;46890;-20
2022/03/07 05:25:11;;;;;;;3.47;3.17;;;13.60;30.40;;;;;;5148125;27;46777;-15
2022/03/07 05:27:38;;;;;;;3.73;3.03;;;13.70;30.20;;;;;;5148414;27;46989;-21
2022/03/07 05:30:06;;;;;;;4.23;3.10;;;13.80;30.10;;;;;;5148535;27;46855;-20
2022/03/07 05:32:34;;;;;;;3.37;2.87;;;13.90;30.00;;;;;;5148846;27;46876;-21
2022/03/07 05:35:00;;;;;;;3.77;3.03;;;13.90;30.00;;;;;;5148038;27;46810;-21
2022/03/07 05:37:27;;;;;;;3.07;2.77;;;14.00;29.90;;;;;;5148381;27;46913;-20
2022/03/07 05:39:54;;;;;;;3.10;2.90;;;14.00;29.90;;;;;;5148299;27;46955;-15
2022/03/07 05:42:21;;;;;;;3.60;3.30;;;14.00;29.70;;;;;;5148308;27;46918;-13
2022/03/07 05:44:48;;;;;;;3.93;3.50;;;14.00;29.70;;;;;;5148128;27;47081;-13
2022/03/07 05:47:14;;;;;;;3.70;3.30;;;14.10;29.70;;;;;;5148234;27;47641;-13
2022/03/07 05:49:42;;;;;;;3.53;2.90;;;14.00;29.60;;;;;;5148408;27;46772;-12
2022/03/07 05:52:09;;;;;;;4.40;3.10;;;14.00;29.70;;;;;;5148358;27;46943;-12
2022/03/07 05:54:36;;;;;;;3.90;3.50;;;14.00;30.00;;;;;;5148093;27;48246;-18
2022/03/07 05:57:03;;;;;;;3.30;3.00;;;14.00;29.70;;;;;;5147788;27;46995;-18
2022/03/07 05:59:29;;;;;;;3.80;3.17;;;14.00;29.70;;;;;;5147556;27;46883;-18
2022/03/07 06:01:56;;;;;;;3.40;3.10;;;14.00;29.70;;;;;;5148341;27;46848;-13
2022/03/07 06:04:23;;;;;;;3.40;3.10;;;14.00;29.70;;;;;;5147485;27;48111;-18
2022/03/07 06:06:51;;;;;;;3.20;2.83;;;14.00;29.80;;;;;;5147848;27;47308;-19
2022/03/07 06:09:18;;;;;;;3.23;2.93;;;13.90;29.80;;;;;;5147737;27;47054;-21
2022/03/07 06:11:44;;;;;;;3.30;2.97;;;13.90;29.80;;;;;;5148069;27;46887;-15
2022/03/07 06:14:11;;;;;;;3.50;3.20;;;13.90;29.80;;;;;;5147587;27;48798;-13
2022/03/07 06:16:38;;;;;;;3.50;3.20;;;13.90;29.90;;;;;;5147905;27;47067;-19
2022/03/07 06:19:05;;;;;;;3.20;3.00;;;13.80;29.90;;;;;;5147279;27;46914;-19
2022/03/07 06:21:32;;;;;;;3.73;3.03;;;13.80;29.90;;;;;;5147743;27;47201;-18
2022/03/07 06:24:00;;;;;;;3.40;3.07;;;13.80;29.90;;;;;;5147654;27;47953;-19
2022/03/07 06:26:27;;;;;;;3.50;3.20;;;13.80;29.90;;;;;;5147689;27;46986;-13
2022/03/07 06:28:53;;;;;;;3.60;3.07;;;13.80;29.90;;;;;;5147419;27;46883;-15
2022/03/07 06:31:20;;;;;;;3.50;3.20;;;13.80;29.90;;;;;;5147993;27;47287;-15
2022/03/07 06:33:47;;;;;;;3.10;2.80;;;13.80;30.00;;;;;;5147491;27;48208;-15
2022/03/07 06:36:13;;;;;;;3.33;2.90;;;13.80;30.00;;;;;;5147346;27;46800;-18
2022/03/07 06:38:40;;;;;;;3.00;2.77;;;13.70;30.00;;;;;;5146490;27;46887;-14
2022/03/07 06:41:08;;;;;;;4.13;3.00;;;13.70;30.00;;;;;;5147695;27;46845;-19
2022/03/07 06:43:37;;;;;;;3.17;2.63;;;13.70;30.00;;;;;;5147206;27;46937;-19
2022/03/07 06:46:03;;;;;;;4.17;3.30;;;13.70;30.00;;;;;;5146949;27;47148;-19
2022/03/07 06:48:30;;;;;;;3.90;3.20;;;13.70;30.00;;;;;;5147628;27;46862;-19
2022/03/07 06:50:57;;;;;;;3.47;3.10;;;13.60;30.00;;;;;;5147437;27;46777;-19
2022/03/07 06:53:23;;;;;;;4.17;3.30;;;13.60;30.00;;;;;;5147311;27;49155;-14
2022/03/07 06:55:51;;;;;;;3.70;3.27;;;13.60;30.00;;;;;;5147192;27;47126;-13
2022/03/07 06:58:21;;;;;;;3.40;3.10;;;13.60;30.00;;;;;;5147342;27;46851;-18
2022/03/07 07:00:48;;;;;;;3.40;2.93;;;13.60;30.00;;;;;;5147296;27;46943;-19
2022/03/07 07:03:15;;;;;;;3.53;3.03;;;13.60;30.10;;;;;;5146633;27;48026;-20
2022/03/07 07:05:41;;;;;;;3.33;3.13;;;13.60;30.10;;;;;;5147024;27;47368;-19
2022/03/07 07:08:08;;;;;;;3.40;2.97;;;13.50;30.00;;;;;;5147002;27;46895;-13
2022/03/07 07:10:35;;;;;;;3.30;3.00;;;13.50;30.00;;;;;;5146842;27;47011;-13
2022/03/07 07:13:02;;;;;;;3.33;3.03;;;13.50;30.10;;;;;;5147056;27;48243;-13
2022/03/07 07:15:30;;;;;;;3.50;3.20;;;13.50;30.10;;;;;;5146528;27;46863;-20
2022/03/07 07:17:57;;;;;;;3.63;2.97;;;13.50;30.10;;;;;;5146513;27;46994;-20
2022/03/07 07:20:24;;;;;;;3.33;3.03;;;13.50;30.10;;;;;;5146445;27;47014;-19
2022/03/07 07:22:50;;;;;;;3.70;3.30;;;13.50;30.80;;;;;;5145749;27;47065;-20
2022/03/07 07:25:17;;;;;;;3.23;2.93;;;13.40;30.20;;;;;;5145577;27;46851;-20
2022/03/07 07:27:44;;;;;;;3.00;2.80;;;13.40;30.20;;;;;;5146550;27;46903;-20
2022/03/07 07:30:12;;;;;;;3.57;2.97;;;13.40;30.10;;;;;;5146399;27;46985;-19
2022/03/07 07:32:40;;;;;;;3.33;3.03;;;13.40;30.20;;;;;;5146442;27;48795;-20
2022/03/07 07:35:08;;;;;;;4.83;3.33;;;13.50;30.20;;;;;;5145882;27;47967;-20
2022/03/07 07:37:34;;;;;;;3.23;2.93;;;13.50;30.10;;;;;;5145415;27;47103;-21
2022/03/07 07:40:01;;;;;;;5.60;3.20;;;13.60;30.00;;;;;;5146611;27;47303;-20
2022/03/07 07:42:39;;;;;;;4.10;3.23;;;13.80;30.00;;;;;;5146205;27;48808;-20
2022/03/07 07:45:07;;;;;;;3.30;3.00;;;13.90;29.90;;;;;;5142760;27;47038;-20
2022/03/07 07:47:35;;;;;;;3.17;2.83;;;14.00;29.70;;;;;;5145158;27;47005;-20
2022/03/07 07:50:04;;;;;;;3.87;3.03;;;14.00;29.60;;;;;;5146084;27;46977;-20
2022/03/07 07:52:31;;;;;;;3.30;3.00;;;14.10;29.60;;;;;;5148851;27;47065;-21
2022/03/07 07:54:58;;;;;;;3.87;3.03;;;14.10;29.60;;;;;;5149294;27;46875;-21
2022/03/07 07:57:25;;;;;;;3.97;3.43;;;14.10;29.50;;;;;;5149659;27;46883;-20
2022/03/07 07:59:53;;;;;;;3.37;3.07;;;14.20;29.50;;;;;;5148874;27;46950;-20
2022/03/07 08:02:21;;;;;;;3.67;3.33;;;14.20;29.50;;;;;;5149355;27;47957;-21
2022/03/07 08:04:51;;;;;;;3.33;2.90;;;14.20;29.50;;;;;;5147538;27;47009;-22
2022/03/07 08:07:20;;;;;;;3.27;2.97;;;14.20;29.50;;;;;;5149596;27;46867;-21
2022/03/07 08:09:47;;;;;;;4.17;3.13;;;14.20;29.50;;;;;;5149308;27;46822;-21
2022/03/07 08:12:17;;;;;;;3.37;3.07;;;14.20;29.40;;;;;;5148825;27;47950;-20
2022/03/07 08:14:44;;;;;;;3.70;3.40;;;14.20;29.40;;;;;;5148101;27;46908;-21
2022/03/07 08:17:11;;;;;;;3.93;3.53;;;14.20;29.50;;;;;;5149707;27;46819;-21
2022/03/07 08:19:39;;;;;;;3.38;3.08;;;14.20;29.50;;;;;;5149310;27;47258;-21
2022/03/07 08:22:06;;;;;;;3.97;3.33;;;14.20;29.40;;;;;;5149615;27;46990;-21
2022/03/07 08:24:34;;;;;;;5.10;3.15;;;14.20;29.50;;;;;;5149006;27;47027;-21
2022/03/07 08:27:00;;;;;;;3.85;3.47;;;14.20;29.50;;;;;;5149526;27;46904;-21
2022/03/07 08:29:27;;;;;;;3.90;3.33;;;14.20;29.50;;;;;;5148555;27;47064;-21
2022/03/07 08:31:54;;;;;;;4.60;3.33;;;14.20;29.60;;;;;;5149111;27;48803;-21
2022/03/07 08:34:20;;;;;;;5.80;3.40;;;14.20;29.60;;;;;;5149129;27;46990;-21
2022/03/07 08:36:47;;;;;;;3.67;3.27;;;14.20;29.60;;;;;;5149157;27;46873;-20
2022/03/07 08:39:14;;;;;;;3.40;3.10;;;14.10;29.60;;;;;;5149347;27;46952;-20
2022/03/07 08:41:42;;;;;;;4.97;3.67;;;14.10;29.60;;;;;;5148669;27;48248;-21
2022/03/07 08:44:09;;;;;;;4.17;3.30;;;14.10;29.60;;;;;;5148294;27;47005;-21
2022/03/07 08:46:36;;;;;;;3.67;3.20;;;14.10;29.70;;;;;;5148503;27;46917;-20
2022/03/07 08:49:02;;;;;;;3.87;3.50;;;14.10;29.70;;;;;;5148210;27;47038;-20
2022/03/07 08:51:29;;;;;;;5.93;3.40;;;14.10;29.70;;;;;;5148856;27;47963;-20
2022/03/07 08:53:56;;;;;;;3.53;3.23;;;14.10;29.70;;;;;;5149176;27;47088;-14
2022/03/07 08:56:22;;;;;;;3.17;2.87;;;14.10;29.70;;;;;;5148913;27;46825;-14
2022/03/07 08:58:50;;;;;;;3.37;3.07;;;14.10;29.70;;;;;;5149416;27;46848;-21
2022/03/07 09:01:18;;;;;;;3.77;3.30;;;14.10;29.70;;;;;;5148549;27;48357;-21
2022/03/07 09:03:45;;;;;;;4.00;3.30;;;14.10;29.80;;;;;;5148941;27;46823;-21
2022/03/07 09:06:12;;;;;;;3.30;3.00;;;14.10;29.80;;;;;;5149043;27;47001;-14
2022/03/07 09:08:38;;;;;;;3.97;3.23;;;14.10;29.80;;;;;;5149181;27;46935;-22
2022/03/07 09:11:05;;;;;;;3.23;2.93;;;14.10;29.80;;;;;;5148558;27;48848;-21
2022/03/07 09:13:32;;;;;;;3.90;3.23;;;14.10;29.90;;;;;;5148641;27;46964;-15
2022/03/07 09:16:00;;;;;;;3.33;3.03;;;14.10;29.80;;;;;;5148724;27;46922;-21
2022/03/07 09:18:27;;;;;;;4.03;3.30;;;14.10;29.90;;;;;;5149173;27;46837;-14
2022/03/07 09:20:54;;;;;;;4.27;3.10;;;14.10;29.90;;;;;;5148431;27;47076;-14
2022/03/07 09:23:21;;;;;;;3.67;3.30;;;14.10;29.90;;;;;;5147445;27;46907;-15
2022/03/07 09:25:48;;;;;;;3.30;3.03;;;14.10;29.90;;;;;;5148306;27;46941;-15
2022/03/07 09:28:14;;;;;;;3.57;3.27;;;14.10;29.90;;;;;;5148649;27;46917;-20
2022/03/07 09:30:41;;;;;;;3.90;3.20;;;14.10;29.90;;;;;;5147794;27;47918;-20
2022/03/07 09:33:09;;;;;;;4.00;3.40;;;14.10;30.00;;;;;;5148426;27;47192;-15
2022/03/07 09:35:36;;;;;;;3.53;3.20;;;14.10;29.90;;;;;;5148253;27;47029;-15
2022/03/07 09:38:03;;;;;;;3.30;2.77;;;14.10;30.00;;;;;;5147992;27;47316;-21
2022/03/07 09:40:29;;;;;;;4.20;3.60;;;14.10;30.00;;;;;;5146731;27;47948;-20
2022/03/07 09:42:56;;;;;;;4.23;3.23;;;14.10;30.00;;;;;;5148255;27;46920;-21
2022/03/07 09:45:23;;;;;;;4.40;3.35;;;14.10;30.00;;;;;;5147494;27;46859;-21
2022/03/07 09:47:50;;;;;;;3.73;3.40;;;14.10;30.00;;;;;;5148593;27;47017;-15
2022/03/07 09:50:18;;;;;;;3.73;3.17;;;14.10;30.00;;;;;;5148011;27;47067;-15
2022/03/07 09:52:46;;;;;;;4.50;3.10;;;14.10;30.00;;;;;;5148557;27;47436;-14
2022/03/07 09:55:13;;;;;;;4.00;3.30;;;14.20;30.00;;;;;;5147748;27;46969;-14
2022/03/07 09:57:40;;;;;;;3.03;2.75;;;14.20;30.00;;;;;;5148145;27;47287;-14
2022/03/07 10:00:08;;;;;;;3.30;3.00;;;14.20;30.00;;;;;;5147672;27;48155;-14
2022/03/07 10:02:35;;;;;;;3.40;2.93;;;14.20;30.10;;;;;;5148188;27;47011;-14
2022/03/07 10:05:02;;;;;;;5.53;4.93;;;14.20;30.10;;;;;;5148003;27;46734;-15
2022/03/07 10:07:30;;;;;;;5.17;4.67;;;14.20;29.30;;;;;;5147666;27;46891;-19
2022/03/07 10:10:05;;;;;;;4.90;4.00;;;14.20;29.30;;;;;;5147062;27;47945;-20
2022/03/07 10:12:31;;;;;;;5.00;3.70;;;14.20;30.00;;;;;;5146064;27;46910;-21
2022/03/07 10:14:58;;;;;;;4.20;3.80;;;14.20;29.80;;;;;;5147337;27;47049;-21
2022/03/07 10:17:26;;;;;;;4.37;3.57;;;14.20;29.80;;;;;;5147854;27;47011;-21
2022/03/07 10:19:54;;;;;;;4.53;3.70;;;14.30;29.90;;;;;;5147281;27;48192;-14
2022/03/07 10:22:22;;;;;;;4.27;3.40;;;14.30;29.90;;;;;;5147718;27;46920;-14
2022/03/07 10:24:58;;;;;;;4.03;3.63;;;14.30;29.90;;;;;;5148739;27;46892;-20
2022/03/07 10:27:25;;;;;;;4.72;3.70;;;14.30;29.90;;;;;;5147158;27;46948;-20
2022/03/07 10:29:52;;;;;;;4.03;3.63;;;14.40;29.90;;;;;;5145371;27;48080;-21
2022/03/07 10:32:19;;;;;;;4.13;3.43;;;14.30;29.90;;;;;;5145079;27;47043;-20
2022/03/07 10:34:46;;;;;;;4.55;3.40;;;14.40;30.00;;;;;;5145669;27;47148;-20
2022/03/07 10:37:13;;;;;;;4.37;3.40;;;14.40;30.00;;;;;;5146688;27;47266;-20
2022/03/07 10:39:46;;;;;;;3.90;3.47;;;14.40;30.00;;;;;;5146001;27;49225;-21
2022/03/07 10:42:16;;;;;;;3.87;3.57;;;14.50;30.00;;;;;;5145760;27;46898;-20
2022/03/07 10:44:43;;;;;;;5.73;3.70;;;14.50;30.00;;;;;;5146550;27;46855;-22
2022/03/07 10:47:12;;;;;;;10.00;3.47;;;14.50;30.00;;;;;;5146661;27;46916;-24
2022/03/07 10:49:48;;;;;;;7.15;3.70;;;14.60;30.20;;;;;;5146091;27;48068;-21
2022/03/07 10:52:14;;;;;;;4.30;3.50;;;14.70;30.00;;;;;;5147363;27;47000;-21
2022/03/07 10:54:41;;;;;;;8.30;3.80;;;14.70;30.10;;;;;;5125444;27;47022;-21
2022/03/07 10:57:08;;;;;;;12.15;3.97;;;14.70;30.20;;;;;;5144027;27;46812;-21
2022/03/07 10:59:37;;;;;;;6.38;3.45;;;14.80;30.10;;;;;;5131631;27;46967;-21
2022/03/07 11:02:06;;;;;;;5.90;3.28;;;14.90;30.00;;;;;;5146782;27;47435;-20
2022/03/07 11:04:33;;;;;;;4.35;3.53;;;14.90;30.00;;;;;;5130369;27;47094;-21
2022/03/07 11:06:59;;;;;;;4.80;3.60;;;14.90;29.90;;;;;;5143070;27;47252;-22
2022/03/07 11:09:27;;;;;;;5.07;3.43;;;15.00;30.00;;;;;;5131593;27;46999;-21
2022/03/07 11:11:54;;;;;;;5.43;3.70;;;15.10;29.90;;;;;;5126224;27;47289;-21
2022/03/07 11:14:21;;;;;;;6.47;3.72;;;15.20;29.90;;;;;;5125579;27;46933;-21
2022/03/07 11:16:50;;;;;;;5.43;3.87;;;15.30;29.70;;;;;;5137114;27;47283;-21
2022/03/07 11:19:18;;;;;;;6.82;3.45;;;15.50;29.70;;;;;;5135868;27;48090;-21
2022/03/07 11:21:44;;;;;;;4.88;3.72;;;15.50;30.00;;;;;;5125964;27;46886;-21
2022/03/07 11:24:11;;;;;;;3.87;3.40;;;15.60;29.40;;;;;;5136624;27;46887;-20
2022/03/07 11:26:41;;;;;;;4.57;3.72;;;15.60;29.40;;;;;;5129683;27;46911;-21
2022/03/07 11:29:08;;;;;;;7.20;4.10;;;15.70;29.30;;;;;;5128718;27;48323;-19
2022/03/07 11:31:35;;;;;;;12.00;4.15;;;15.80;29.50;;;;;;5129402;27;46897;-20
2022/03/07 11:34:06;;;;;;;6.35;3.95;;;15.90;29.90;;;;;;5127682;27;47042;-21
2022/03/07 11:36:33;;;;;;;4.50;3.47;;;16.00;29.30;;;;;;5140681;27;47160;-14
2022/03/07 11:39:01;;;;;;;5.15;3.38;;;16.10;29.60;;;;;;5149295;27;48886;-14
2022/03/07 11:41:28;;;;;;;3.75;3.17;;;16.20;29.10;;;;;;5148778;27;47133;-14
2022/03/07 11:43:56;;;;;;;6.03;4.57;;;16.30;29.30;;;;;;5149077;27;46921;-14
2022/03/07 11:46:23;;;;;;;5.85;3.75;;;16.30;28.50;;;;;;5149626;27;47083;-14
2022/03/07 11:48:50;;;;;;;5.10;3.85;;;16.40;28.50;;;;;;5148624;27;47258;-14
2022/03/07 11:51:19;;;;;;;6.22;3.53;;;16.50;28.60;;;;;;5147731;27;47211;-14
2022/03/07 11:53:46;;;;;;;5.88;4.20;;;16.50;28.50;;;;;;5149564;27;46882;-14
2022/03/07 11:56:16;;;;;;;7.03;3.90;;;16.60;28.50;;;;;;5150147;27;47275;-14
2022/03/07 11:58:48;;;;;;;6.38;3.33;;;16.70;28.50;;;;;;5149338;27;46890;-14
2022/03/07 12:01:15;;;;;;;5.60;3.22;;;16.80;28.50;;;;;;5148968;27;46986;-13
2022/03/07 12:03:41;;;;;;;8.55;3.63;;;16.90;28.40;;;;;;5149877;27;47017;-21
2022/03/07 12:06:10;;;;;;;12.48;3.60;;;16.90;28.30;;;;;;5171404;27;46828;-16
2022/03/07 12:08:45;;;;;;;8.43;3.90;;;17.00;28.40;;;;;;5146883;27;47319;-14
2022/03/07 12:11:23;;;;;;;11.13;3.85;;;17.10;29.20;;;;;;5146981;27;47010;-14
2022/03/07 12:13:50;;;;;;;9.43;3.95;;;17.10;28.50;;;;;;5143745;27;47185;-15
2022/03/07 12:16:27;;;;;;;8.65;4.78;;;17.20;28.30;;;;;;5156179;27;46942;-14
2022/03/07 12:19:07;;;;;;;8.35;4.05;;;17.30;28.20;;;;;;5149319;27;46828;-14
2022/03/07 12:21:34;;;;;;;12.23;4.03;;;17.30;28.10;;;;;;5149330;27;47531;-14
2022/03/07 12:24:02;;;;;;;7.18;3.60;;;17.40;28.10;;;;;;5149216;27;46847;-14
2022/03/07 12:26:29;;;;;;;6.38;3.50;;;17.50;28.10;;;;;;5149405;27;47117;-14
2022/03/07 12:28:56;;;;;;;10.25;3.85;;;17.50;28.10;;;;;;5149132;27;46825;-14
2022/03/07 12:31:22;;;;;;;8.55;3.70;;;17.60;28.10;;;;;;5148446;27;46998;-14
2022/03/07 12:33:49;;;;;;;10.07;3.85;;;17.60;28.00;;;;;;5147761;27;46794;-15
2022/03/07 12:36:16;;;;;;;11.07;3.65;;;17.70;28.00;;;;;;5146734;27;47280;-13
2022/03/07 12:38:47;;;;;;;10.13;3.75;;;17.80;28.00;;;;;;5147400;27;46889;-15
2022/03/07 12:41:15;;;;;;;6.05;3.33;;;17.80;28.10;;;;;;5147101;27;47381;-14
2022/03/07 12:43:43;;;;;;;8.32;3.40;;;17.90;27.90;;;;;;5147514;27;46957;-14
2022/03/07 12:46:11;;;;;;;6.22;3.88;;;17.90;27.80;;;;;;5147576;27;46981;-14